createdAt,value
2018-05-06T00:00:04.263Z,993.44
2018-05-06T00:01:11.313Z,993.47
2018-05-06T00:02:18.258Z,993.40
2018-05-06T00:03:25.186Z,993.35
2018-05-06T00:04:32.003Z,993.39
2018-05-06T00:05:38.978Z,993.39
2018-05-06T00:06:45.795Z,993.45
2018-05-06T00:07:52.903Z,993.38
2018-05-06T00:08:59.696Z,993.40
2018-05-06T00:10:06.098Z,993.39
2018-05-06T00:11:13.176Z,993.39
2018-05-06T00:12:20.099Z,993.46
2018-05-06T00:13:27.076Z,993.35
2018-05-06T00:14:34.060Z,993.34
2018-05-06T00:15:40.980Z,993.45
2018-05-06T00:16:48.150Z,993.41
2018-05-06T00:17:54.984Z,993.43
2018-05-06T00:19:01.963Z,993.41
2018-05-06T00:20:08.751Z,993.41
2018-05-06T00:21:15.654Z,993.33
2018-05-06T00:22:22.555Z,993.37
2018-05-06T00:23:30.695Z,993.39
2018-05-06T00:24:36.216Z,993.36
2018-05-06T00:25:43.182Z,993.33
2018-05-06T00:26:50.224Z,993.43
2018-05-06T00:27:57.143Z,993.43
2018-05-06T00:29:04.031Z,993.36
2018-05-06T00:30:10.947Z,993.36
2018-05-06T00:31:17.724Z,993.37
2018-05-06T00:32:24.792Z,993.48
2018-05-06T00:33:31.929Z,993.38
2018-05-06T00:34:38.894Z,993.34
2018-05-06T00:35:45.949Z,993.31
2018-05-06T00:36:52.952Z,993.38
2018-05-06T00:37:59.816Z,993.41
2018-05-06T00:39:06.691Z,993.41
2018-05-06T00:40:14.760Z,993.42
2018-05-06T00:41:20.793Z,993.42
2018-05-06T00:42:27.215Z,993.49
2018-05-06T00:43:34.181Z,993.44
2018-05-06T00:44:41.354Z,993.41
2018-05-06T00:45:47.828Z,993.38
2018-05-06T00:46:54.932Z,993.40
2018-05-06T00:48:01.589Z,993.41
2018-05-06T00:49:08.512Z,993.49
2018-05-06T00:50:15.487Z,993.47
2018-05-06T00:51:22.431Z,993.45
2018-05-06T00:52:29.261Z,993.45
2018-05-06T00:53:36.313Z,993.50
2018-05-06T00:54:43.212Z,993.44
2018-05-06T00:55:49.808Z,993.40
2018-05-06T00:56:56.785Z,993.37
2018-05-06T00:58:03.770Z,993.46
2018-05-06T00:59:10.759Z,993.41
2018-05-06T01:00:17.803Z,993.45
2018-05-06T01:01:24.429Z,993.41
2018-05-06T01:02:31.376Z,993.38
2018-05-06T01:03:41.542Z,993.43
2018-05-06T01:04:45.359Z,993.44
2018-05-06T01:05:52.187Z,993.47
2018-05-06T01:06:59.083Z,993.45
2018-05-06T01:08:05.951Z,993.45
2018-05-06T01:09:12.881Z,993.35
2018-05-06T01:10:23.083Z,993.40
2018-05-06T01:11:26.426Z,993.35
2018-05-06T01:12:33.483Z,993.43
2018-05-06T01:13:40.336Z,993.38
2018-05-06T01:14:47.311Z,993.40
2018-05-06T01:15:54.239Z,993.42
2018-05-06T01:17:01.208Z,993.44
2018-05-06T01:18:08.153Z,993.41
2018-05-06T01:19:15.020Z,993.36
2018-05-06T01:20:22.047Z,993.42
2018-05-06T01:21:29.262Z,993.42
2018-05-06T01:22:36.228Z,993.35
2018-05-06T01:23:42.989Z,993.38
2018-05-06T01:24:50.135Z,993.42
2018-05-06T01:25:57.091Z,993.42
2018-05-06T01:27:04.116Z,993.36
2018-05-06T01:28:11.386Z,993.40
2018-05-06T01:29:17.812Z,993.37
2018-05-06T01:30:24.615Z,993.32
2018-05-06T01:31:31.596Z,993.44
2018-05-06T01:32:38.639Z,993.35
2018-05-06T01:33:45.595Z,993.43
2018-05-06T01:34:52.664Z,993.38
2018-05-06T01:35:59.663Z,993.33
2018-05-06T01:37:06.694Z,993.39
2018-05-06T01:38:13.659Z,993.31
2018-05-06T01:39:20.618Z,993.37
2018-05-06T01:40:27.705Z,993.36
2018-05-06T01:41:34.709Z,993.38
2018-05-06T01:42:41.629Z,993.36
2018-05-06T01:43:48.600Z,993.38
2018-05-06T01:44:55.477Z,993.37
2018-05-06T01:46:02.571Z,993.38
2018-05-06T01:47:09.355Z,993.34
2018-05-06T01:48:16.296Z,993.38
2018-05-06T01:49:23.051Z,993.38
2018-05-06T01:50:29.934Z,993.29
2018-05-06T01:51:37.095Z,993.30
2018-05-06T01:52:44.046Z,993.30
2018-05-06T01:53:51.052Z,993.33
2018-05-06T01:54:57.879Z,993.32
2018-05-06T01:56:04.852Z,993.34
2018-05-06T01:57:11.831Z,993.29
2018-05-06T01:58:18.749Z,993.27
2018-05-06T01:59:25.793Z,993.29
2018-05-06T02:00:32.728Z,993.28
2018-05-06T02:01:39.855Z,993.25
2018-05-06T02:02:46.589Z,993.31
2018-05-06T02:03:53.548Z,993.32
2018-05-06T02:05:00.327Z,993.30
2018-05-06T02:06:07.296Z,993.34
2018-05-06T02:07:14.076Z,993.31
2018-05-06T02:08:21.027Z,993.28
2018-05-06T02:09:27.999Z,993.35
2018-05-06T02:10:34.867Z,993.36
2018-05-06T02:11:42.005Z,993.38
2018-05-06T02:12:48.462Z,993.39
2018-05-06T02:13:55.183Z,993.33
2018-05-06T02:15:02.046Z,993.40
2018-05-06T02:16:08.880Z,993.36
2018-05-06T02:17:15.716Z,993.44
2018-05-06T02:18:22.761Z,993.34
2018-05-06T02:19:29.639Z,993.39
2018-05-06T02:20:36.435Z,993.33
2018-05-06T02:21:43.546Z,993.36
2018-05-06T02:22:50.220Z,993.39
2018-05-06T02:23:56.966Z,993.37
2018-05-06T02:25:03.715Z,993.31
2018-05-06T02:26:10.444Z,993.35
2018-05-06T02:27:17.366Z,993.39
2018-05-06T02:28:24.117Z,993.41
2018-05-06T02:29:30.864Z,993.46
2018-05-06T02:30:37.698Z,993.36
2018-05-06T02:31:44.711Z,993.36
2018-05-06T02:32:51.596Z,993.40
2018-05-06T02:33:58.335Z,993.33
2018-05-06T02:35:05.228Z,993.39
2018-05-06T02:36:12.002Z,993.41
2018-05-06T02:37:18.802Z,993.37
2018-05-06T02:38:25.511Z,993.38
2018-05-06T02:39:32.259Z,993.48
2018-05-06T02:40:39.135Z,993.37
2018-05-06T02:41:46.008Z,993.46
2018-05-06T02:42:52.931Z,993.42
2018-05-06T02:43:59.760Z,993.42
2018-05-06T02:45:06.815Z,993.38
2018-05-06T02:46:13.722Z,993.28
2018-05-06T02:47:20.457Z,993.33
2018-05-06T02:48:27.403Z,993.37
2018-05-06T02:49:34.276Z,993.40
2018-05-06T02:50:41.154Z,993.36
2018-05-06T02:51:47.958Z,993.31
2018-05-06T02:52:54.683Z,993.43
2018-05-06T02:54:01.435Z,993.38
2018-05-06T02:55:08.167Z,993.36
2018-05-06T02:56:15.046Z,993.39
2018-05-06T02:57:21.775Z,993.41
2018-05-06T02:58:28.519Z,993.44
2018-05-06T02:59:35.315Z,993.38
2018-05-06T03:00:42.156Z,993.45
2018-05-06T03:01:48.958Z,993.38
2018-05-06T03:02:55.747Z,993.39
2018-05-06T03:04:02.578Z,993.36
2018-05-06T03:05:09.396Z,993.37
2018-05-06T03:06:16.195Z,993.37
2018-05-06T03:07:22.955Z,993.33
2018-05-06T03:08:29.798Z,993.39
2018-05-06T03:09:36.548Z,993.40
2018-05-06T03:10:43.324Z,993.31
2018-05-06T03:11:50.026Z,993.40
2018-05-06T03:12:56.773Z,993.37
2018-05-06T03:14:03.505Z,993.38
2018-05-06T03:15:10.334Z,993.31
2018-05-06T03:16:17.099Z,993.34
2018-05-06T03:17:24.066Z,993.37
2018-05-06T03:18:30.982Z,993.39
2018-05-06T03:19:37.719Z,993.38
2018-05-06T03:20:44.474Z,993.36
2018-05-06T03:21:51.345Z,993.33
2018-05-06T03:22:58.018Z,993.35
2018-05-06T03:24:04.682Z,993.34
2018-05-06T03:25:11.908Z,993.35
2018-05-06T03:26:18.678Z,993.33
2018-05-06T03:27:25.374Z,993.31
2018-05-06T03:28:32.241Z,993.38
2018-05-06T03:29:39.111Z,993.34
2018-05-06T03:30:45.792Z,993.37
2018-05-06T03:31:52.516Z,993.39
2018-05-06T03:32:59.434Z,993.41
2018-05-06T03:34:06.165Z,993.40
2018-05-06T03:35:12.868Z,993.41
2018-05-06T03:36:19.624Z,993.45
2018-05-06T03:37:26.472Z,993.40
2018-05-06T03:38:33.399Z,993.47
2018-05-06T03:39:40.143Z,993.41
2018-05-06T03:40:46.858Z,993.43
2018-05-06T03:41:53.663Z,993.46
2018-05-06T03:43:00.355Z,993.45
2018-05-06T03:44:07.077Z,993.52
2018-05-06T03:45:13.834Z,993.44
2018-05-06T03:46:20.599Z,993.39
2018-05-06T03:47:27.365Z,993.39
2018-05-06T03:48:34.120Z,993.46
2018-05-06T03:49:40.838Z,993.43
2018-05-06T03:50:47.534Z,993.44
2018-05-06T03:51:54.293Z,993.44
2018-05-06T03:53:01.003Z,993.39
2018-05-06T03:54:07.741Z,993.46
2018-05-06T03:55:14.775Z,993.40
2018-05-06T03:56:21.688Z,993.51
2018-05-06T03:57:28.646Z,993.46
2018-05-06T03:58:35.772Z,993.51
2018-05-06T04:00:51.009Z,993.50
2018-05-06T04:01:57.989Z,993.53
2018-05-06T04:03:05.023Z,993.44
2018-05-06T04:04:11.926Z,993.49
2018-05-06T04:05:18.658Z,993.49
2018-05-06T04:06:25.403Z,993.53
2018-05-06T04:07:32.169Z,993.57
2018-05-06T04:08:38.908Z,993.53
2018-05-06T04:09:45.798Z,993.56
2018-05-06T04:10:52.568Z,993.49
2018-05-06T04:11:59.307Z,993.63
2018-05-06T04:13:06.211Z,993.59
2018-05-06T04:14:13.430Z,993.58
2018-05-06T04:15:20.344Z,993.59
2018-05-06T04:16:27.214Z,993.66
2018-05-06T04:17:34.087Z,993.72
2018-05-06T04:18:40.987Z,993.70
2018-05-06T04:19:47.811Z,993.68
2018-05-06T04:20:54.837Z,993.73
2018-05-06T04:22:01.726Z,993.65
2018-05-06T04:23:08.550Z,993.66
2018-05-06T04:24:15.572Z,993.72
2018-05-06T04:25:22.627Z,993.70
2018-05-06T04:26:29.554Z,993.70
2018-05-06T04:27:36.681Z,993.68
2018-05-06T04:28:43.060Z,993.57
2018-05-06T04:29:49.891Z,993.66
2018-05-06T04:30:56.742Z,993.67
2018-05-06T04:32:03.702Z,993.65
2018-05-06T04:33:10.426Z,993.71
2018-05-06T04:34:17.160Z,993.71
2018-05-06T04:35:24.056Z,993.71
2018-05-06T04:36:30.927Z,993.72
2018-05-06T04:37:37.819Z,993.67
2018-05-06T04:38:44.578Z,993.69
2018-05-06T04:39:51.447Z,993.75
2018-05-06T04:40:58.703Z,993.76
2018-05-06T04:42:05.159Z,993.78
2018-05-06T04:43:12.128Z,993.72
2018-05-06T04:44:18.931Z,993.76
2018-05-06T04:45:25.670Z,993.79
2018-05-06T04:46:32.648Z,993.77
2018-05-06T04:47:39.716Z,993.83
2018-05-06T04:48:46.619Z,993.80
2018-05-06T04:49:53.542Z,993.82
2018-05-06T04:51:00.467Z,993.74
2018-05-06T04:52:07.255Z,993.82
2018-05-06T04:53:14.038Z,993.74
2018-05-06T04:54:21.030Z,993.73
2018-05-06T04:55:27.824Z,993.76
2018-05-06T04:56:34.666Z,993.79
2018-05-06T04:57:41.467Z,993.78
2018-05-06T04:58:48.158Z,993.82
2018-05-06T04:59:54.931Z,993.82
2018-05-06T05:01:01.896Z,993.84
2018-05-06T05:02:08.726Z,993.81
2018-05-06T05:03:15.560Z,993.83
2018-05-06T05:04:22.372Z,993.97
2018-05-06T05:05:29.282Z,993.81
2018-05-06T05:06:36.029Z,993.85
2018-05-06T05:07:42.852Z,993.80
2018-05-06T05:08:49.579Z,993.91
2018-05-06T05:09:56.449Z,993.87
2018-05-06T05:11:03.341Z,993.96
2018-05-06T05:12:10.115Z,993.94
2018-05-06T05:13:16.868Z,993.93
2018-05-06T05:14:23.826Z,993.96
2018-05-06T05:15:30.554Z,993.95
2018-05-06T05:16:37.473Z,993.99
2018-05-06T05:17:44.230Z,994.00
2018-05-06T05:18:51.154Z,993.97
2018-05-06T05:19:57.869Z,993.99
2018-05-06T05:21:04.681Z,994.00
2018-05-06T05:22:11.534Z,993.96
2018-05-06T05:23:18.279Z,993.98
2018-05-06T05:24:25.047Z,994.01
2018-05-06T05:25:31.878Z,994.10
2018-05-06T05:26:38.586Z,994.07
2018-05-06T05:27:45.351Z,994.11
2018-05-06T05:28:52.076Z,994.14
2018-05-06T05:29:59.031Z,994.13
2018-05-06T05:31:05.890Z,994.11
2018-05-06T05:32:12.684Z,994.17
2018-05-06T05:33:19.409Z,994.08
2018-05-06T05:34:26.211Z,994.14
2018-05-06T05:35:33.032Z,994.12
2018-05-06T05:36:39.976Z,994.17
2018-05-06T05:37:46.703Z,994.18
2018-05-06T05:38:53.440Z,994.11
2018-05-06T05:40:00.170Z,994.06
2018-05-06T05:41:07.053Z,994.15
2018-05-06T05:42:13.751Z,994.18
2018-05-06T05:43:20.623Z,994.15
2018-05-06T05:44:27.350Z,994.18
2018-05-06T05:45:34.388Z,994.15
2018-05-06T05:46:40.861Z,994.09
2018-05-06T05:47:47.806Z,994.14
2018-05-06T05:48:54.534Z,994.15
2018-05-06T05:50:01.314Z,994.20
2018-05-06T05:51:08.246Z,994.20
2018-05-06T05:52:15.026Z,994.19
2018-05-06T05:53:21.918Z,994.20
2018-05-06T05:54:28.778Z,994.21
2018-05-06T05:55:35.565Z,994.19
2018-05-06T05:56:42.465Z,994.19
2018-05-06T05:57:49.509Z,994.21
2018-05-06T05:58:56.489Z,994.17
2018-05-06T06:00:03.847Z,994.11
2018-05-06T06:01:10.333Z,994.18
2018-05-06T06:02:17.392Z,994.20
2018-05-06T06:03:24.098Z,994.14
2018-05-06T06:04:30.956Z,994.21
2018-05-06T06:05:37.724Z,994.22
2018-05-06T06:06:44.479Z,994.20
2018-05-06T06:07:51.304Z,994.20
2018-05-06T06:08:58.318Z,994.24
2018-05-06T06:10:05.091Z,994.27
2018-05-06T06:11:11.798Z,994.26
2018-05-06T06:12:18.596Z,994.22
2018-05-06T06:13:25.389Z,994.17
2018-05-06T06:14:32.200Z,994.28
2018-05-06T06:15:39.078Z,994.23
2018-05-06T06:16:45.839Z,994.24
2018-05-06T06:17:52.775Z,994.15
2018-05-06T06:18:59.509Z,994.11
2018-05-06T06:20:06.343Z,994.17
2018-05-06T06:21:13.282Z,994.21
2018-05-06T06:22:20.150Z,994.26
2018-05-06T06:23:27.038Z,994.13
2018-05-06T06:24:34.076Z,994.24
2018-05-06T06:25:40.884Z,994.17
2018-05-06T06:26:49.132Z,994.25
2018-05-06T06:27:54.764Z,994.10
2018-05-06T06:29:01.514Z,994.22
2018-05-06T06:30:08.250Z,994.15
2018-05-06T06:31:15.045Z,994.15
2018-05-06T06:32:21.895Z,994.16
2018-05-06T06:33:28.687Z,994.12
2018-05-06T06:34:35.466Z,994.12
2018-05-06T06:35:42.171Z,994.15
2018-05-06T06:36:49.219Z,994.17
2018-05-06T06:37:56.115Z,994.17
2018-05-06T06:39:02.943Z,994.21
2018-05-06T06:40:09.867Z,994.14
2018-05-06T06:41:16.602Z,994.26
2018-05-06T06:42:23.507Z,994.25
2018-05-06T06:43:30.704Z,994.20
2018-05-06T06:44:37.247Z,994.20
2018-05-06T06:45:46.139Z,994.25
2018-05-06T06:46:51.316Z,994.22
2018-05-06T06:47:58.360Z,994.13
2018-05-06T06:49:05.238Z,994.22
2018-05-06T06:50:12.064Z,994.16
2018-05-06T06:51:18.805Z,994.15
2018-05-06T06:52:25.563Z,994.22
2018-05-06T06:53:32.439Z,994.19
2018-05-06T06:54:39.101Z,994.24
2018-05-06T06:55:46.369Z,994.29
2018-05-06T06:56:53.344Z,994.27
2018-05-06T06:58:00.531Z,994.25
2018-05-06T06:59:06.958Z,994.24
2018-05-06T07:00:13.784Z,994.19
2018-05-06T07:01:20.707Z,994.23
2018-05-06T07:02:27.719Z,994.21
2018-05-06T07:03:34.506Z,994.23
2018-05-06T07:04:41.236Z,994.23
2018-05-06T07:05:48.004Z,994.20
2018-05-06T07:06:54.930Z,994.19
2018-05-06T07:08:01.656Z,994.20
2018-05-06T07:09:08.517Z,994.23
2018-05-06T07:10:15.211Z,994.16
2018-05-06T07:11:22.054Z,994.22
2018-05-06T07:12:28.808Z,994.18
2018-05-06T07:13:35.626Z,994.19
2018-05-06T07:14:42.732Z,994.19
2018-05-06T07:15:49.327Z,994.23
2018-05-06T07:16:56.050Z,994.21
2018-05-06T07:18:02.925Z,994.16
2018-05-06T07:19:09.859Z,994.17
2018-05-06T07:20:16.736Z,994.17
2018-05-06T07:21:23.681Z,994.18
2018-05-06T07:22:30.695Z,994.11
2018-05-06T07:23:37.485Z,994.11
2018-05-06T07:24:44.377Z,994.13
2018-05-06T07:25:52.901Z,994.23
2018-05-06T07:26:58.271Z,994.11
2018-05-06T07:28:05.120Z,994.23
2018-05-06T07:29:12.114Z,994.15
2018-05-06T07:30:19.287Z,994.17
2018-05-06T07:31:25.955Z,994.16
2018-05-06T07:32:32.908Z,994.16
2018-05-06T07:33:39.784Z,994.03
2018-05-06T07:34:46.702Z,994.04
2018-05-06T07:35:53.587Z,994.03
2018-05-06T07:37:00.268Z,993.97
2018-05-06T07:38:07.127Z,994.01
2018-05-06T07:39:14.074Z,993.99
2018-05-06T07:40:21.695Z,993.98
2018-05-06T07:41:28.996Z,994.02
2018-05-06T07:42:35.001Z,994.03
2018-05-06T07:43:41.747Z,994.02
2018-05-06T07:44:48.758Z,994.00
2018-05-06T07:45:55.639Z,993.95
2018-05-06T07:47:02.647Z,993.97
2018-05-06T07:48:09.322Z,993.99
2018-05-06T07:49:16.080Z,993.94
2018-05-06T07:50:22.879Z,993.97
2018-05-06T07:51:29.633Z,993.99
2018-05-06T07:52:36.391Z,993.98
2018-05-06T07:53:43.167Z,993.94
2018-05-06T07:54:50.035Z,993.94
2018-05-06T07:55:56.835Z,994.04
2018-05-06T07:57:03.624Z,993.98
2018-05-06T07:58:10.555Z,993.94
2018-05-06T07:59:17.291Z,993.96
2018-05-06T08:00:24.052Z,993.98
2018-05-06T08:01:30.774Z,993.93
2018-05-06T08:02:37.727Z,993.98
2018-05-06T08:03:44.614Z,994.01
2018-05-06T08:04:51.431Z,993.93
2018-05-06T08:05:58.411Z,994.01
2018-05-06T08:07:05.318Z,993.93
2018-05-06T08:09:19.283Z,993.92
2018-05-06T08:10:26.186Z,993.93
2018-05-06T08:11:32.903Z,993.93
2018-05-06T08:12:39.919Z,994.01
2018-05-06T08:13:47.106Z,993.90
2018-05-06T08:14:53.779Z,993.94
2018-05-06T08:16:00.892Z,993.93
2018-05-06T08:17:07.834Z,993.95
2018-05-06T08:18:14.582Z,994.02
2018-05-06T08:19:21.359Z,993.95
2018-05-06T08:20:28.216Z,993.92
2018-05-06T08:21:35.115Z,993.97
2018-05-06T08:22:41.968Z,993.91
2018-05-06T08:23:49.054Z,993.93
2018-05-06T08:24:56.564Z,993.93
2018-05-06T08:26:03.162Z,994.00
2018-05-06T08:27:10.060Z,993.94
2018-05-06T08:28:16.900Z,993.93
2018-05-06T08:29:23.727Z,993.89
2018-05-06T08:30:25.639Z,993.96
2018-05-06T08:31:32.408Z,993.91
2018-05-06T08:32:39.147Z,993.90
2018-05-06T08:33:46.008Z,993.96
2018-05-06T08:34:52.899Z,993.95
2018-05-06T08:35:59.791Z,993.80
2018-05-06T08:37:06.674Z,993.84
2018-05-06T08:38:13.539Z,993.88
2018-05-06T08:39:20.375Z,993.86
2018-05-06T08:40:27.151Z,993.83
2018-05-06T08:41:36.584Z,993.89
2018-05-06T08:42:40.704Z,993.89
2018-05-06T08:43:47.447Z,993.87
2018-05-06T08:44:54.202Z,993.91
2018-05-06T08:46:01.010Z,993.87
2018-05-06T08:47:07.812Z,993.78
2018-05-06T08:48:14.608Z,993.84
2018-05-06T08:49:21.610Z,993.83
2018-05-06T08:50:28.481Z,993.81
2018-05-06T08:51:48.783Z,993.76
2018-05-06T08:52:42.294Z,993.80
2018-05-06T08:53:49.166Z,993.80
2018-05-06T08:54:55.932Z,993.73
2018-05-06T08:56:02.708Z,993.83
2018-05-06T08:57:09.488Z,993.74
2018-05-06T08:58:16.215Z,993.76
2018-05-06T08:59:22.951Z,993.73
2018-05-06T09:00:29.683Z,993.67
2018-05-06T09:01:36.472Z,993.74
2018-05-06T09:02:43.223Z,993.74
2018-05-06T09:03:49.976Z,993.68
2018-05-06T09:04:56.695Z,993.70
2018-05-06T09:06:03.486Z,993.68
2018-05-06T09:07:10.242Z,993.74
2018-05-06T09:08:20.907Z,993.71
2018-05-06T09:09:23.707Z,993.66
2018-05-06T09:10:30.474Z,993.69
2018-05-06T09:11:37.283Z,993.65
2018-05-06T09:12:44.099Z,993.73
2018-05-06T09:13:51.004Z,993.70
2018-05-06T09:14:57.718Z,993.64
2018-05-06T09:16:04.458Z,993.70
2018-05-06T09:17:11.252Z,993.67
2018-05-06T09:18:18.072Z,993.63
2018-05-06T09:19:24.803Z,993.66
2018-05-06T09:20:31.565Z,993.57
2018-05-06T09:21:38.371Z,993.66
2018-05-06T09:22:45.136Z,993.67
2018-05-06T09:23:51.899Z,993.63
2018-05-06T09:24:58.647Z,993.57
2018-05-06T09:26:05.511Z,993.61
2018-05-06T09:27:12.277Z,993.63
2018-05-06T09:28:19.168Z,993.68
2018-05-06T09:29:26.751Z,993.66
2018-05-06T09:30:32.630Z,993.66
2018-05-06T09:31:39.459Z,993.63
2018-05-06T09:32:46.302Z,993.70
2018-05-06T09:33:53.070Z,993.64
2018-05-06T09:34:59.896Z,993.65
2018-05-06T09:36:06.640Z,993.60
2018-05-06T09:37:13.426Z,993.68
2018-05-06T09:38:20.300Z,993.66
2018-05-06T09:39:27.071Z,993.57
2018-05-06T09:40:33.969Z,993.54
2018-05-06T09:41:40.701Z,993.58
2018-05-06T09:42:47.471Z,993.62
2018-05-06T09:43:54.247Z,993.55
2018-05-06T09:45:00.979Z,993.63
2018-05-06T09:46:07.844Z,993.52
2018-05-06T09:47:14.631Z,993.48
2018-05-06T09:48:21.410Z,993.58
2018-05-06T09:49:28.214Z,993.54
2018-05-06T09:50:34.964Z,993.46
2018-05-06T09:51:41.726Z,993.49
2018-05-06T09:52:48.545Z,993.49
2018-05-06T09:53:55.451Z,993.39
2018-05-06T09:55:02.362Z,993.48
2018-05-06T09:56:09.251Z,993.50
2018-05-06T09:57:16.031Z,993.44
2018-05-06T09:58:22.869Z,993.48
2018-05-06T09:59:29.624Z,993.46
2018-05-06T10:00:36.407Z,993.50
2018-05-06T10:01:44.236Z,993.50
2018-05-06T10:02:49.858Z,993.42
2018-05-06T10:03:56.642Z,993.44
2018-05-06T10:05:03.377Z,993.40
2018-05-06T10:06:10.170Z,993.32
2018-05-06T10:07:17.278Z,993.31
2018-05-06T10:08:24.050Z,993.44
2018-05-06T10:09:30.819Z,993.43
2018-05-06T10:10:38.036Z,993.33
2018-05-06T10:11:44.539Z,993.41
2018-05-06T10:12:53.184Z,993.33
2018-05-06T10:13:58.513Z,993.26
2018-05-06T10:15:05.274Z,993.30
2018-05-06T10:16:12.067Z,993.28
2018-05-06T10:17:18.870Z,993.23
2018-05-06T10:18:25.722Z,993.21
2018-05-06T10:19:32.532Z,993.22
2018-05-06T10:20:39.283Z,993.25
2018-05-06T10:21:46.078Z,993.14
2018-05-06T10:22:52.932Z,993.11
2018-05-06T10:23:59.670Z,993.13
2018-05-06T10:25:06.688Z,993.14
2018-05-06T10:26:13.484Z,993.12
2018-05-06T10:27:20.189Z,993.16
2018-05-06T10:28:26.937Z,993.12
2018-05-06T10:29:33.693Z,993.16
2018-05-06T10:30:40.507Z,993.09
2018-05-06T10:31:47.530Z,993.07
2018-05-06T10:32:54.265Z,993.03
2018-05-06T10:34:01.022Z,993.02
2018-05-06T10:35:07.776Z,993.01
2018-05-06T10:36:14.515Z,993.00
2018-05-06T10:37:21.283Z,993.04
2018-05-06T10:38:28.045Z,993.02
2018-05-06T10:39:34.900Z,993.03
2018-05-06T10:40:41.878Z,992.93
2018-05-06T10:41:48.600Z,993.01
2018-05-06T10:42:55.343Z,992.96
2018-05-06T10:44:02.102Z,992.97
2018-05-06T10:45:08.959Z,992.99
2018-05-06T10:46:15.751Z,992.95
2018-05-06T10:47:22.652Z,993.05
2018-05-06T10:48:29.543Z,993.04
2018-05-06T10:49:36.295Z,992.96
2018-05-06T10:50:43.190Z,992.97
2018-05-06T10:51:49.936Z,992.86
2018-05-06T10:52:56.691Z,992.97
2018-05-06T10:54:03.456Z,992.78
2018-05-06T10:55:10.291Z,992.86
2018-05-06T10:56:17.054Z,993.03
2018-05-06T10:57:23.834Z,992.85
2018-05-06T10:58:30.580Z,992.84
2018-05-06T10:59:37.299Z,992.89
2018-05-06T11:00:44.039Z,992.84
2018-05-06T11:01:51.099Z,992.89
2018-05-06T11:02:57.918Z,992.83
2018-05-06T11:04:04.745Z,992.84
2018-05-06T11:05:11.454Z,992.82
2018-05-06T11:06:18.237Z,992.85
2018-05-06T11:07:25.011Z,992.73
2018-05-06T11:08:31.851Z,992.79
2018-05-06T11:09:38.686Z,992.82
2018-05-06T11:10:45.457Z,992.76
2018-05-06T11:11:52.249Z,992.82
2018-05-06T11:12:58.987Z,992.77
2018-05-06T11:14:05.759Z,992.80
2018-05-06T11:15:12.499Z,992.75
2018-05-06T11:16:19.246Z,992.75
2018-05-06T11:17:26.004Z,992.69
2018-05-06T11:18:32.743Z,992.65
2018-05-06T11:19:39.493Z,992.68
2018-05-06T11:20:46.272Z,992.62
2018-05-06T11:21:53.069Z,992.60
2018-05-06T11:22:59.874Z,992.60
2018-05-06T11:24:06.657Z,992.55
2018-05-06T11:25:13.418Z,992.68
2018-05-06T11:26:20.242Z,992.56
2018-05-06T11:27:27.423Z,992.59
2018-05-06T11:28:33.785Z,992.59
2018-05-06T11:29:40.507Z,992.55
2018-05-06T11:30:47.302Z,992.52
2018-05-06T11:31:54.035Z,992.49
2018-05-06T11:33:01.102Z,992.48
2018-05-06T11:34:07.883Z,992.49
2018-05-06T11:35:14.642Z,992.47
2018-05-06T11:36:21.499Z,992.48
2018-05-06T11:37:28.230Z,992.47
2018-05-06T11:38:34.974Z,992.50
2018-05-06T11:39:41.790Z,992.44
2018-05-06T11:40:48.562Z,992.53
2018-05-06T11:41:55.319Z,992.55
2018-05-06T11:43:02.098Z,992.52
2018-05-06T11:44:08.903Z,992.47
2018-05-06T11:45:15.733Z,992.41
2018-05-06T11:46:22.505Z,992.45
2018-05-06T11:47:29.380Z,992.41
2018-05-06T11:48:36.105Z,992.44
2018-05-06T11:49:42.839Z,992.49
2018-05-06T11:50:50.163Z,992.42
2018-05-06T11:51:56.640Z,992.31
2018-05-06T11:53:03.429Z,992.32
2018-05-06T11:54:10.263Z,992.50
2018-05-06T11:55:16.999Z,992.41
2018-05-06T11:56:24.008Z,992.38
2018-05-06T11:57:30.870Z,992.36
2018-05-06T11:58:37.742Z,992.34
2018-05-06T11:59:44.589Z,992.30
2018-05-06T12:00:51.444Z,992.28
2018-05-06T12:01:58.201Z,992.30
2018-05-06T12:03:04.982Z,992.28
2018-05-06T12:04:11.812Z,992.24
2018-05-06T12:05:18.619Z,992.26
2018-05-06T12:06:25.685Z,992.20
2018-05-06T12:07:32.507Z,992.15
2018-05-06T12:08:39.369Z,992.27
2018-05-06T12:09:46.363Z,992.30
2018-05-06T12:10:53.111Z,992.29
2018-05-06T12:11:59.849Z,992.21
2018-05-06T12:13:06.622Z,992.27
2018-05-06T12:14:13.368Z,992.23
2018-05-06T12:15:20.134Z,992.19
2018-05-06T12:16:27.272Z,992.19
2018-05-06T12:17:34.012Z,992.24
2018-05-06T12:18:42.094Z,992.26
2018-05-06T12:19:53.223Z,992.19
2018-05-06T12:20:54.690Z,992.21
2018-05-06T12:22:01.428Z,992.23
2018-05-06T12:23:08.200Z,992.18
2018-05-06T12:24:15.043Z,992.29
2018-05-06T12:25:21.945Z,992.18
2018-05-06T12:26:29.996Z,992.18
2018-05-06T12:27:35.848Z,992.19
2018-05-06T12:28:42.709Z,992.15
2018-05-06T12:29:49.565Z,992.14
2018-05-06T12:30:56.595Z,992.10
2018-05-06T12:32:03.337Z,992.11
2018-05-06T12:33:10.089Z,992.05
2018-05-06T12:34:16.913Z,992.15
2018-05-06T12:35:23.968Z,992.11
2018-05-06T12:36:30.723Z,992.03
2018-05-06T12:37:37.476Z,992.08
2018-05-06T12:38:44.520Z,992.04
2018-05-06T12:39:51.934Z,992.05
2018-05-06T12:40:57.994Z,992.01
2018-05-06T12:42:04.992Z,992.05
2018-05-06T12:43:11.860Z,992.04
2018-05-06T12:44:18.575Z,992.04
2018-05-06T12:45:25.383Z,992.06
2018-05-06T12:46:32.205Z,992.01
2018-05-06T12:47:38.964Z,992.03
2018-05-06T12:48:45.780Z,992.02
2018-05-06T12:49:52.819Z,992.01
2018-05-06T12:50:59.543Z,992.04
2018-05-06T12:52:06.270Z,992.01
2018-05-06T12:53:13.064Z,991.95
2018-05-06T12:54:19.791Z,991.86
2018-05-06T12:55:26.554Z,991.79
2018-05-06T12:56:33.487Z,991.86
2018-05-06T12:57:40.075Z,991.84
2018-05-06T12:58:46.982Z,991.76
2018-05-06T12:59:53.847Z,991.75
2018-05-06T13:01:00.585Z,991.68
2018-05-06T13:02:07.345Z,991.60
2018-05-06T13:03:14.102Z,991.60
2018-05-06T13:04:20.814Z,991.75
2018-05-06T13:05:28.955Z,991.71
2018-05-06T13:06:34.705Z,991.70
2018-05-06T13:07:41.426Z,991.70
2018-05-06T13:08:48.222Z,991.75
2018-05-06T13:09:55.159Z,991.68
2018-05-06T13:11:02.007Z,991.69
2018-05-06T13:12:08.788Z,991.70
2018-05-06T13:13:15.523Z,991.64
2018-05-06T13:14:22.311Z,991.54
2018-05-06T13:15:29.226Z,991.59
2018-05-06T13:16:36.199Z,991.54
2018-05-06T13:17:42.999Z,991.60
2018-05-06T13:18:50.492Z,991.53
2018-05-06T13:19:56.776Z,991.54
2018-05-06T13:21:03.530Z,991.49
2018-05-06T13:22:10.449Z,991.51
2018-05-06T13:23:17.202Z,991.55
2018-05-06T13:24:23.971Z,991.51
2018-05-06T13:25:30.735Z,991.48
2018-05-06T13:26:37.486Z,991.49
2018-05-06T13:27:44.175Z,991.57
2018-05-06T13:28:50.959Z,991.51
2018-05-06T13:31:04.692Z,991.42
2018-05-06T13:32:11.466Z,991.36
2018-05-06T13:33:18.262Z,991.34
2018-05-06T13:34:25.055Z,991.33
2018-05-06T13:35:31.860Z,991.35
2018-05-06T13:36:38.738Z,991.36
2018-05-06T13:37:45.539Z,991.25
2018-05-06T13:38:52.303Z,991.27
2018-05-06T13:39:59.667Z,991.20
2018-05-06T13:41:06.072Z,991.24
2018-05-06T13:42:12.930Z,991.24
2018-05-06T13:43:19.797Z,991.24
2018-05-06T13:44:26.566Z,991.23
2018-05-06T13:45:33.305Z,991.20
2018-05-06T13:46:40.169Z,991.11
2018-05-06T13:47:46.808Z,991.15
2018-05-06T13:48:53.638Z,991.16
2018-05-06T13:50:00.427Z,991.05
2018-05-06T13:51:07.231Z,991.06
2018-05-06T13:52:14.150Z,991.12
2018-05-06T13:53:20.930Z,990.99
2018-05-06T13:54:28.475Z,991.07
2018-05-06T13:55:34.793Z,991.01
2018-05-06T13:56:41.596Z,991.01